Time;durP1;ratioP1;P1;durP2;ratioP2;P2;SDS_P1;SDS_P2;PMS_P1;PMS_P2;Temp;Humidity;BMP_temperature;BMP_pressure;BME280_temperature;BME280_humidity;BME280_pressure;Samples;Min_cycle;Max_cycle;Signal;HPM_P1;HPM_P2
2023/10/11 00:01:58;;;;;;;8.75;4.53;;;;;;;18.42;57.44;101366.91;5083431;28;20103;-69
2023/10/11 00:04:23;;;;;;;9.80;4.93;;;;;;;18.36;57.21;101365.50;5083063;28;20039;-69
2023/10/11 00:06:54;;;;;;;8.52;4.60;;;;;;;18.33;57.59;101363.91;5080885;28;20047;-69
2023/10/11 00:09:37;;;;;;;7.55;4.55;;;;;;;18.25;58.24;101368.03;5080016;28;20024;-69
2023/10/11 00:12:11;;;;;;;7.97;4.60;;;;;;;18.19;57.73;101366.59;5072403;28;20036;-69
2023/10/11 00:14:39;;;;;;;7.07;4.45;;;;;;;18.16;57.76;101369.47;5071682;28;20032;-69
2023/10/11 00:17:06;;;;;;;9.73;5.43;;;;;;;18.29;57.64;101369.53;5074009;28;20414;-69
2023/10/11 00:19:33;;;;;;;10.30;4.57;;;;;;;18.30;57.09;101361.41;5083461;28;20137;-69
2023/10/11 00:21:59;;;;;;;7.20;4.45;;;;;;;18.29;57.29;101361.50;5081161;28;20032;-70
2023/10/11 00:24:24;;;;;;;9.65;4.35;;;;;;;18.27;57.39;101364.28;5081423;28;20035;-69
2023/10/11 00:26:50;;;;;;;7.93;4.78;;;;;;;18.27;57.36;101358.06;5082266;28;20024;-69
2023/10/11 00:29:16;;;;;;;7.75;4.53;;;;;;;18.24;57.39;101364.50;5071970;28;20020;-69
2023/10/11 00:31:41;;;;;;;7.63;4.05;;;;;;;18.23;57.05;101362.78;5079801;28;20029;-69
2023/10/11 00:34:10;;;;;;;7.93;4.18;;;;;;;18.20;58.05;101354.06;5079437;28;20494;-69
2023/10/11 00:36:36;;;;;;;6.88;3.78;;;;;;;18.16;57.76;101350.72;5082866;28;20499;-69
2023/10/11 00:39:01;;;;;;;7.13;4.88;;;;;;;18.13;57.58;101358.09;5083116;28;20020;-69
2023/10/11 00:41:30;;;;;;;9.38;4.63;;;;;;;18.12;58.89;101351.88;5071053;28;20043;-69
2023/10/11 00:43:56;;;;;;;9.48;4.68;;;;;;;18.12;57.85;101359.03;5077006;28;20078;-69
2023/10/11 00:46:37;;;;;;;7.45;4.68;;;;;;;18.14;57.81;101357.13;5081205;28;20035;-69
2023/10/11 00:49:09;;;;;;;8.52;4.28;;;;;;;18.13;57.89;101355.41;5079767;28;20032;-68
2023/10/11 00:51:36;;;;;;;9.18;4.78;;;;;;;18.14;58.45;101357.13;5082061;28;20134;-68
2023/10/11 00:54:04;;;;;;;7.68;3.85;;;;;;;18.07;58.04;101354.84;5082155;28;20032;-69
2023/10/11 00:56:33;;;;;;;7.60;4.20;;;;;;;18.05;57.96;101350.56;5080871;28;20032;-69
2023/10/11 00:59:08;;;;;;;8.50;4.60;;;;;;;18.02;58.27;101351.59;5079927;28;20025;-69
2023/10/11 01:01:33;;;;;;;5.63;4.47;;;;;;;17.96;58.54;101359.16;5080665;28;20516;-69
2023/10/11 01:03:58;;;;;;;7.22;4.43;;;;;;;17.95;59.64;101344.03;5082777;28;20063;-68
2023/10/11 01:06:25;;;;;;;13.73;4.72;;;;;;;17.93;59.00;101348.66;5082437;28;20056;-68
2023/10/11 01:08:52;;;;;;;9.30;4.47;;;;;;;17.85;59.22;101343.75;5080194;28;20066;-69
2023/10/11 01:11:17;;;;;;;7.35;4.68;;;;;;;17.81;58.48;101348.47;5079341;28;20052;-69
2023/10/11 01:13:50;;;;;;;9.20;5.18;;;;;;;17.78;59.62;101334.44;5079315;28;20101;-69
2023/10/11 01:16:17;;;;;;;8.48;5.45;;;;;;;17.69;59.36;101343.84;5079244;28;20029;-69
2023/10/11 01:18:42;;;;;;;9.23;5.53;;;;;;;17.65;59.77;101344.13;5080759;28;20364;-69
2023/10/11 01:21:09;;;;;;;9.15;4.85;;;;;;;17.63;59.88;101338.88;5083354;28;20074;-69
2023/10/11 01:23:35;;;;;;;8.57;4.63;;;;;;;17.60;61.04;101342.59;5083459;28;20194;-69
2023/10/11 01:26:07;;;;;;;7.75;4.90;;;;;;;17.58;60.20;101349.84;5083124;28;20479;-69
2023/10/11 01:28:41;;;;;;;9.45;4.88;;;;;;;17.52;60.23;101344.00;5083354;28;20032;-68
2023/10/11 01:31:10;;;;;;;7.78;4.63;;;;;;;17.45;60.74;101334.66;5085294;28;20546;-68
2023/10/11 01:33:36;;;;;;;8.00;4.63;;;;;;;17.42;60.35;101337.50;5081125;28;20028;-68
2023/10/11 01:36:06;;;;;;;8.18;4.85;;;;;;;17.36;60.80;101333.41;5083380;28;20491;-68
2023/10/11 01:38:33;;;;;;;9.02;4.60;;;;;;;17.32;60.85;101338.06;5086160;28;20123;-69
2023/10/11 01:40:59;;;;;;;10.07;5.00;;;;;;;17.29;60.91;101332.03;5086073;28;20028;-69
2023/10/11 01:43:25;;;;;;;10.48;4.70;;;;;;;17.23;61.38;101337.75;5082598;28;20448;-68
2023/10/11 01:45:50;;;;;;;6.68;4.35;;;;;;;17.22;61.52;101334.22;5082171;28;20024;-69
2023/10/11 01:48:17;;;;;;;8.30;4.43;;;;;;;17.24;61.49;101320.78;5085618;28;20028;-69
2023/10/11 01:50:43;;;;;;;9.73;5.20;;;;;;;17.18;61.71;101319.34;5082896;28;20387;-68
2023/10/11 01:53:08;;;;;;;9.20;4.72;;;;;;;17.17;61.57;101324.78;5084217;28;20048;-69
2023/10/11 01:55:36;;;;;;;11.70;5.03;;;;;;;17.16;61.92;101321.25;5082583;28;20032;-69
2023/10/11 01:58:01;;;;;;;8.40;5.07;;;;;;;17.02;61.62;101319.41;5082923;28;20032;-69
2023/10/11 02:00:29;;;;;;;9.88;5.00;;;;;;;17.11;62.06;101317.97;5083376;28;20024;-69
2023/10/11 02:02:55;;;;;;;10.35;5.32;;;;;;;17.08;62.24;101312.81;5085866;28;20030;-69
2023/10/11 02:05:25;;;;;;;14.18;5.13;;;;;;;17.07;62.55;101311.13;5081539;28;20067;-69
2023/10/11 02:07:50;;;;;;;8.25;4.55;;;;;;;17.04;61.96;101301.47;5082762;28;20528;-69
2023/10/11 02:10:25;;;;;;;8.30;4.95;;;;;;;17.01;62.54;101300.78;5082345;28;20033;-69
2023/10/11 02:12:51;;;;;;;9.98;4.78;;;;;;;16.96;62.43;101298.38;5084992;28;20059;-69
2023/10/11 02:15:27;;;;;;;10.43;5.25;;;;;;;16.95;62.47;101299.34;5081545;28;20495;-69
2023/10/11 02:17:52;;;;;;;10.18;5.25;;;;;;;16.94;62.72;101291.44;5078282;28;20021;-69
2023/10/11 02:20:21;;;;;;;8.25;5.00;;;;;;;16.93;62.68;101289.72;5085527;28;20467;-69
2023/10/11 02:22:50;;;;;;;8.50;4.82;;;;;;;16.90;62.38;101284.53;5084809;28;20495;-69
2023/10/11 02:25:17;;;;;;;9.70;5.05;;;;;;;16.86;63.03;101280.31;5077789;28;20104;-69
2023/10/11 02:27:42;;;;;;;7.63;4.63;;;;;;;16.83;63.08;101284.91;5085743;28;20645;-69
2023/10/11 02:30:19;;;;;;;9.00;5.05;;;;;;;16.81;63.57;101276.13;5083010;28;20103;-69
2023/10/11 02:32:44;;;;;;;10.95;5.45;;;;;;;16.76;63.01;101285.34;5081585;28;20058;-69
2023/10/11 02:35:13;;;;;;;12.88;5.70;;;;;;;16.77;63.58;101279.91;5083982;28;20758;-69
2023/10/11 02:37:39;;;;;;;8.30;5.10;;;;;;;16.75;63.31;101283.66;5082274;28;20472;-69
2023/10/11 02:40:08;;;;;;;14.70;5.55;;;;;;;16.71;63.67;101285.59;5082443;28;20024;-69
2023/10/11 02:42:37;;;;;;;11.32;5.25;;;;;;;16.70;63.89;101280.34;5085111;28;20554;-69
2023/10/11 02:45:09;;;;;;;8.07;5.40;;;;;;;16.68;63.59;101284.91;5078492;28;20531;-69
2023/10/11 02:47:38;;;;;;;15.75;5.60;;;;;;;16.66;64.33;101285.00;5074761;28;20542;-69
2023/10/11 02:50:07;;;;;;;9.57;5.30;;;;;;;16.61;63.90;101292.44;5081823;28;20032;-69
2023/10/11 02:52:35;;;;;;;11.18;5.10;;;;;;;16.60;64.34;101280.03;5081531;28;20061;-69
2023/10/11 02:55:21;;;;;;;9.40;5.78;;;;;;;16.56;63.94;101282.00;5072957;28;20032;-69
2023/10/11 02:57:48;;;;;;;12.63;5.95;;;;;;;16.52;64.34;101283.13;5072834;28;20060;-69
2023/10/11 03:00:23;;;;;;;8.43;5.65;;;;;;;16.53;64.22;101278.66;5081533;28;20097;-69
2023/10/11 03:02:55;;;;;;;9.63;5.82;;;;;;;16.53;65.32;101279.50;5073889;28;20474;-69
2023/10/11 03:05:27;;;;;;;13.25;4.82;;;;;;;16.56;64.13;101284.69;5080509;28;20138;-69
2023/10/11 03:08:17;;;;;;;10.18;5.55;;;;;;;16.51;64.89;101276.09;5073459;28;20031;-69
2023/10/11 03:10:53;;;;;;;9.55;4.78;;;;;;;16.48;65.03;101276.25;5082932;28;20032;-68
2023/10/11 03:13:26;;;;;;;11.30;5.78;;;;;;;16.46;64.76;101277.28;5084439;28;20020;-68
2023/10/11 03:15:54;;;;;;;8.15;5.63;;;;;;;16.35;65.30;101269.03;5082307;28;20028;-69
2023/10/11 03:18:31;;;;;;;10.20;6.30;;;;;;;16.30;65.78;101263.97;5086069;28;20503;-69
2023/10/11 03:21:09;;;;;;;6.85;4.80;;;;;;;16.28;65.46;101253.41;5082974;28;20036;-69
2023/10/11 03:23:44;;;;;;;7.68;4.78;;;;;;;16.27;65.84;101253.47;5082423;28;20055;-69
2023/10/11 03:26:17;;;;;;;11.43;5.43;;;;;;;16.24;65.88;101262.53;5084023;28;20053;-69
2023/10/11 03:28:44;;;;;;;12.65;5.07;;;;;;;16.25;66.20;101258.91;5084309;28;20036;-69
2023/10/11 03:31:12;;;;;;;12.73;6.68;;;;;;;16.21;66.18;101273.34;5081475;28;20024;-69
2023/10/11 03:33:40;;;;;;;15.05;5.60;;;;;;;16.18;66.67;101261.97;5080871;28;20021;-69
2023/10/11 03:36:17;;;;;;;10.43;5.70;;;;;;;16.19;66.74;101267.25;5080747;28;20471;-69
2023/10/11 03:38:45;;;;;;;10.07;5.40;;;;;;;16.17;66.48;101261.13;5081038;28;20468;-69
2023/10/11 03:41:27;;;;;;;9.05;5.90;;;;;;;16.14;66.88;101260.47;5081831;28;20029;-69
2023/10/11 03:43:54;;;;;;;10.23;5.68;;;;;;;16.11;66.58;101261.50;5079062;28;20367;-69
2023/10/11 03:46:25;;;;;;;10.45;5.88;;;;;;;16.04;67.35;101257.44;5080201;28;20472;-69
2023/10/11 03:49:01;;;;;;;9.68;5.68;;;;;;;16.02;67.44;101257.53;5083860;28;20024;-69
2023/10/11 03:51:28;;;;;;;11.02;6.55;;;;;;;16.01;67.22;101265.63;5081647;28;20499;-69
2023/10/11 03:53:53;;;;;;;9.93;6.32;;;;;;;15.96;67.36;101257.03;5073835;28;20063;-69
2023/10/11 03:56:19;;;;;;;9.25;5.93;;;;;;;15.86;68.26;101255.81;5079432;28;20154;-69
2023/10/11 03:58:44;;;;;;;10.02;6.30;;;;;;;15.90;67.81;101252.00;5083701;28;20069;-69
2023/10/11 04:01:14;;;;;;;9.05;5.68;;;;;;;15.88;67.98;101251.25;5083656;28;20022;-69
2023/10/11 04:03:41;;;;;;;11.88;6.45;;;;;;;15.81;68.66;101254.28;5081583;28;20608;-69
2023/10/11 04:06:13;;;;;;;11.18;6.30;;;;;;;15.80;68.31;101254.34;5080168;28;20051;-69
2023/10/11 04:08:43;;;;;;;10.85;6.20;;;;;;;15.79;68.93;101250.81;5081557;28;20028;-68
2023/10/11 04:11:17;;;;;;;10.48;6.57;;;;;;;15.90;68.83;101252.91;5083297;28;20123;-69
2023/10/11 04:13:45;;;;;;;11.77;6.47;;;;;;;15.89;68.48;101255.63;5082930;28;20036;-68
2023/10/11 04:16:16;;;;;;;12.13;6.28;;;;;;;15.87;68.70;101249.53;5083301;28;20377;-68
2023/10/11 04:18:43;;;;;;;17.27;7.20;;;;;;;15.87;68.72;101244.22;5082262;28;20077;-68
2023/10/11 04:23:35;;;;;;;10.63;6.10;;;;;;;15.69;69.65;101235.41;5081680;28;20019;-68
2023/10/11 04:28:47;;;;;;;11.27;5.97;;;;;;;15.72;69.57;101222.78;5083369;28;20062;-68
2023/10/11 04:31:28;;;;;;;11.38;6.25;;;;;;;15.72;69.86;101227.25;5080425;28;20017;-69
2023/10/11 04:33:54;;;;;;;11.32;6.53;;;;;;;15.71;69.59;101222.84;5079665;28;20464;-69
2023/10/11 04:36:20;;;;;;;13.88;6.82;;;;;;;15.69;69.88;101228.28;5071454;28;20066;-68
2023/10/11 04:38:49;;;;;;;9.80;5.22;;;;;;;15.65;69.72;101226.72;5079952;28;20468;-68
2023/10/11 04:41:16;;;;;;;10.93;6.45;;;;;;;15.61;70.17;101237.59;5081445;28;20083;-68
2023/10/11 04:43:50;;;;;;;11.02;6.60;;;;;;;15.57;70.37;101235.13;5082566;28;20429;-69
2023/10/11 04:46:16;;;;;;;11.63;6.93;;;;;;;15.55;70.25;101239.66;5078905;28;20031;-68
2023/10/11 04:48:42;;;;;;;9.85;5.97;;;;;;;15.53;70.50;101230.03;5082972;28;20032;-68
2023/10/11 04:59:06;;;;;;;12.75;6.80;;;;;;;15.62;70.11;101236.66;5081257;28;20628;-68
2023/10/11 05:01:58;;;;;;;11.98;6.57;;;;;;;15.51;70.16;101242.56;5079990;28;20025;-68
2023/10/11 05:04:28;;;;;;;13.40;6.72;;;;;;;15.45;70.67;101249.09;5079263;28;20043;-68
2023/10/11 05:06:55;;;;;;;13.55;6.72;;;;;;;15.41;70.95;101244.03;5080879;28;20032;-68
2023/10/11 05:09:29;;;;;;;10.57;7.22;;;;;;;15.54;70.53;101253.09;5080664;28;20470;-68
2023/10/11 05:12:07;;;;;;;10.50;6.60;;;;;;;15.42;70.76;101241.25;5082850;28;20486;-68
2023/10/11 05:14:40;;;;;;;10.88;6.95;;;;;;;15.32;71.35;101240.03;5077966;28;20059;-68
2023/10/11 05:17:38;;;;;;;8.80;6.03;;;;;;;15.31;71.85;101247.19;5077506;28;20021;-68
2023/10/11 05:28:07;;;;;;;9.43;6.88;;;;;;;15.53;71.06;101254.88;5080362;28;20391;-69
2023/10/11 05:30:33;;;;;;;11.43;7.43;;;;;;;15.52;70.78;101252.28;5079016;28;20472;-69
2023/10/11 05:52:16;;;;;;;12.70;7.80;;;;;;;15.40;72.33;101258.28;5078669;28;20063;-69
2023/10/11 05:54:43;;;;;;;13.75;7.75;;;;;;;15.37;72.14;101259.31;5078522;28;20028;-69
2023/10/11 05:57:09;;;;;;;9.60;6.70;;;;;;;15.41;72.20;101252.88;5080052;28;20024;-69
2023/10/11 05:59:38;;;;;;;13.27;6.93;;;;;;;15.38;72.42;101249.50;5082251;28;20054;-69
2023/10/11 06:02:13;;;;;;;11.52;7.15;;;;;;;15.41;72.65;101260.88;5082251;28;20036;-69
2023/10/11 06:04:42;;;;;;;10.40;7.15;;;;;;;15.45;72.42;101262.44;5070413;28;20036;-69
2023/10/11 06:07:11;;;;;;;11.00;7.32;;;;;;;15.49;72.31;101264.00;5081140;28;20016;-69
2023/10/11 06:09:43;;;;;;;14.10;7.35;;;;;;;15.53;72.14;101270.03;5074557;28;20028;-69
2023/10/11 06:12:22;;;;;;;12.32;6.40;;;;;;;15.57;72.56;101260.88;5082487;28;20071;-69
2023/10/11 06:14:51;;;;;;;13.82;7.43;;;;;;;15.57;72.29;101263.56;5085632;28;20028;-69
2023/10/11 06:17:21;;;;;;;15.73;7.70;;;;;;;15.60;72.16;101259.88;5078830;28;20480;-69
2023/10/11 06:19:53;;;;;;;10.40;7.25;;;;;;;15.65;71.85;101256.03;5085673;28;20020;-69
2023/10/11 06:22:21;;;;;;;13.18;8.13;;;;;;;15.67;72.49;101259.50;5085432;28;20055;-69
2023/10/11 06:24:46;;;;;;;13.30;7.00;;;;;;;15.71;71.98;101263.69;5076804;28;20039;-69
2023/10/11 06:29:55;;;;;;;14.25;8.05;;;;;;;15.74;72.08;101242.22;5082846;28;20098;-68
2023/10/11 06:32:22;;;;;;;14.32;8.25;;;;;;;15.75;72.28;101251.91;5082188;28;20036;-68
2023/10/11 06:34:50;;;;;;;12.57;7.72;;;;;;;15.79;72.46;101255.28;5081811;28;20059;-68
2023/10/11 06:37:24;;;;;;;11.95;7.55;;;;;;;15.62;72.66;101258.88;5082088;28;20472;-68
2023/10/11 06:44:47;;;;;;;14.50;8.25;;;;;;;15.90;72.34;101268.91;5079993;28;20063;-68
2023/10/11 06:47:21;;;;;;;11.82;7.90;;;;;;;15.97;71.58;101270.25;5084859;28;20121;-68
2023/10/11 06:49:53;;;;;;;16.45;8.15;;;;;;;16.04;71.47;101265.44;5085555;28;20024;-68
2023/10/11 06:52:30;;;;;;;14.23;8.65;;;;;;;16.12;71.68;101262.34;5082615;28;20044;-68
2023/10/11 06:55:16;;;;;;;12.85;8.10;;;;;;;16.18;71.12;101268.22;5078714;28;20025;-68
2023/10/11 06:57:54;;;;;;;10.80;7.68;;;;;;;16.20;71.94;101268.97;5075854;28;20498;-68
2023/10/11 07:00:23;;;;;;;13.70;7.80;;;;;;;16.33;71.13;101282.47;5084191;28;20028;-69
2023/10/11 07:02:55;;;;;;;11.70;7.35;;;;;;;16.41;70.63;101274.00;5084798;28;20020;-70
2023/10/11 07:05:25;;;;;;;15.48;7.47;;;;;;;16.43;70.65;101273.00;5074996;28;20503;-69
2023/10/11 07:07:52;;;;;;;15.13;8.43;;;;;;;16.49;70.76;101277.97;5081622;28;20106;-69
2023/10/11 07:10:31;;;;;;;15.30;8.90;;;;;;;16.56;70.53;101279.34;5081819;28;20380;-69
2023/10/11 07:13:04;;;;;;;13.30;7.80;;;;;;;16.65;70.56;101274.44;5084929;28;20067;-69
2023/10/11 07:15:45;;;;;;;12.48;7.82;;;;;;;16.71;70.10;101288.25;5075822;28;20468;-69
2023/10/11 07:18:24;;;;;;;16.55;7.53;;;;;;;16.81;70.07;101291.28;5084535;28;20028;-69
2023/10/11 07:21:06;;;;;;;14.43;7.68;;;;;;;16.93;69.26;101306.59;5072983;28;20430;-69
2023/10/11 07:23:35;;;;;;;12.50;7.53;;;;;;;17.03;69.15;101314.91;5081200;28;20037;-70
2023/10/11 07:28:51;;;;;;;13.23;7.35;;;;;;;17.21;68.67;101324.50;5082576;28;20043;-69
2023/10/11 07:31:20;;;;;;;10.65;6.93;;;;;;;17.26;68.13;101321.56;5081015;28;20060;-70
2023/10/11 07:33:55;;;;;;;13.40;7.97;;;;;;;17.30;67.76;101323.94;5082227;28;20028;-69
2023/10/11 07:36:22;;;;;;;10.57;7.43;;;;;;;17.36;67.68;101324.53;5083828;28;20032;-70
2023/10/11 07:39:00;;;;;;;13.05;7.68;;;;;;;17.49;67.77;101330.84;5080223;28;20443;-68
2023/10/11 07:41:29;;;;;;;12.18;7.10;;;;;;;17.47;67.82;101320.22;5084367;28;20023;-68
2023/10/11 07:44:01;;;;;;;14.52;7.90;;;;;;;17.62;67.43;101323.78;5083731;28;20031;-68
2023/10/11 07:46:28;;;;;;;12.30;7.10;;;;;;;17.91;66.48;101319.31;5078520;28;20024;-69
2023/10/11 07:49:02;;;;;;;17.45;8.02;;;;;;;17.97;66.48;101312.72;5084317;28;20028;-69
2023/10/11 07:51:29;;;;;;;11.68;7.70;;;;;;;18.13;66.01;101313.44;5080474;28;20427;-69
2023/10/11 07:53:55;;;;;;;13.25;7.80;;;;;;;18.20;65.41;101309.44;5080231;28;20023;-68
2023/10/11 07:56:20;;;;;;;16.48;8.05;;;;;;;18.19;66.23;101309.53;5080175;28;20024;-69
2023/10/11 07:58:47;;;;;;;14.85;7.82;;;;;;;18.35;65.29;101321.81;5080405;28;20032;-68
2023/10/11 08:01:25;;;;;;;15.70;7.68;;;;;;;18.64;65.05;101313.69;5080974;28;20032;-70
2023/10/11 08:03:51;;;;;;;14.77;7.68;;;;;;;18.89;64.46;101315.63;5084192;28;20024;-70
2023/10/11 08:06:23;;;;;;;12.35;8.07;;;;;;;19.07;63.28;101321.53;5082741;28;20115;-69
2023/10/11 08:08:49;;;;;;;14.38;7.70;;;;;;;19.23;62.46;101316.84;5080978;28;20031;-70
2023/10/11 08:11:22;;;;;;;16.10;6.97;;;;;;;19.54;62.22;101309.38;5081143;28;20041;-69
2023/10/11 08:13:49;;;;;;;14.48;7.72;;;;;;;19.53;61.42;101310.31;5073533;28;20028;-69
2023/10/11 08:16:18;;;;;;;14.38;7.03;;;;;;;19.42;62.19;101311.06;5081609;28;20030;-69
2023/10/11 08:18:46;;;;;;;12.02;7.60;;;;;;;19.30;62.77;101312.78;5082460;28;20471;-69
2023/10/11 08:21:11;;;;;;;13.75;7.70;;;;;;;19.28;61.72;101306.66;5083620;28;20042;-70
2023/10/11 08:23:42;;;;;;;10.80;7.55;;;;;;;19.15;63.52;101308.47;5083349;28;20103;-70
2023/10/11 08:26:13;;;;;;;12.70;8.00;;;;;;;19.21;62.93;101310.75;5078572;28;20120;-69
2023/10/11 08:28:47;;;;;;;15.05;8.18;;;;;;;19.29;62.73;101313.75;5081266;28;20020;-69
2023/10/11 08:31:12;;;;;;;15.23;8.48;;;;;;;19.38;63.35;101321.16;5083899;28;20505;-69
2023/10/11 08:33:38;;;;;;;15.82;8.55;;;;;;;19.36;62.57;101319.56;5083675;28;20028;-69
2023/10/11 08:36:04;;;;;;;13.65;8.20;;;;;;;19.85;61.85;101324.16;5079895;28;20474;-70
2023/10/11 08:38:31;;;;;;;16.52;7.65;;;;;;;20.48;60.38;101328.56;5080725;28;20031;-70
2023/10/11 08:41:00;;;;;;;12.95;8.27;;;;;;;21.10;58.36;101324.78;5082535;28;20047;-70
2023/10/11 08:43:25;;;;;;;12.57;7.55;;;;;;;21.39;56.94;101333.31;5084118;28;20039;-69
2023/10/11 08:46:05;;;;;;;15.50;7.72;;;;;;;21.63;56.30;101327.84;5085954;28;20020;-70
2023/10/11 08:48:38;;;;;;;15.93;7.55;;;;;;;21.77;55.69;101329.44;5080707;28;20027;-70
2023/10/11 08:51:10;;;;;;;13.70;7.78;;;;;;;22.44;55.24;101342.88;5080875;28;20535;-69
2023/10/11 08:53:36;;;;;;;;;;;;;;;23.04;54.34;101335.22;5084408;28;20048;-69
2023/10/11 08:56:02;;;;;;;13.50;7.57;;;;;;;23.38;52.17;101336.72;5076623;28;19908;-69
2023/10/11 08:58:28;;;;;;;13.60;7.63;;;;;;;23.97;50.99;101321.72;5082833;28;20038;-70
2023/10/11 09:00:58;;;;;;;12.63;7.05;;;;;;;23.96;50.68;101335.34;5082495;28;20024;-69
2023/10/11 09:03:39;;;;;;;11.13;7.47;;;;;;;23.13;52.21;101346.09;5080400;28;20414;-71
2023/10/11 09:06:05;;;;;;;11.23;7.72;;;;;;;22.68;53.62;101353.47;5073890;28;20476;-70
2023/10/11 09:08:32;;;;;;;15.25;7.97;;;;;;;22.18;55.12;101355.78;5082057;28;20580;-70
2023/10/11 09:11:32;;;;;;;12.02;7.63;;;;;;;21.93;56.87;101354.16;5081419;28;20089;-70
2023/10/11 09:14:22;;;;;;;11.52;7.93;;;;;;;21.49;57.98;101352.28;5073876;28;20510;-70
2023/10/11 09:16:51;;;;;;;15.85;8.95;;;;;;;21.25;58.58;101353.16;5069254;28;20456;-69
2023/10/11 09:19:19;;;;;;;18.38;10.35;;;;;;;21.20;58.85;101352.66;5079539;28;20028;-70
2023/10/11 09:22:04;;;;;;;16.08;10.18;;;;;;;21.08;59.51;101351.78;5081845;28;20058;-69
2023/10/11 09:24:41;;;;;;;16.60;9.90;;;;;;;21.05;60.00;101343.09;5074088;28;20028;-70
2023/10/11 09:27:18;;;;;;;17.75;10.68;;;;;;;20.86;60.16;101352.56;5079659;28;20484;-70
2023/10/11 09:29:43;;;;;;;17.67;10.93;;;;;;;20.65;60.93;101348.78;5080873;28;20028;-70
2023/10/11 09:32:13;;;;;;;19.40;11.30;;;;;;;20.48;61.97;101357.25;5082461;28;20043;-70
2023/10/11 09:34:41;;;;;;;22.48;12.95;;;;;;;20.20;62.90;101359.22;5082404;28;20741;-69
2023/10/11 09:37:13;;;;;;;21.45;12.70;;;;;;;20.09;63.69;101357.28;5074518;28;20056;-70
2023/10/11 09:39:42;;;;;;;23.30;13.52;;;;;;;20.04;64.06;101355.91;5082955;28;20024;-70
2023/10/11 09:42:11;;;;;;;19.73;13.45;;;;;;;20.02;64.47;101353.34;5082111;28;20062;-70
2023/10/11 09:44:40;;;;;;;21.10;14.18;;;;;;;19.96;64.97;101371.69;5080706;28;20028;-70
2023/10/11 09:47:07;;;;;;;25.35;14.75;;;;;;;19.92;65.38;101357.66;5079799;28;20032;-70
2023/10/11 09:49:43;;;;;;;22.25;14.13;;;;;;;19.88;65.77;101359.69;5086279;28;20035;-70
2023/10/11 09:52:09;;;;;;;26.65;14.30;;;;;;;19.92;65.45;101360.34;5082347;28;20118;-70
2023/10/11 09:54:37;;;;;;;24.55;14.18;;;;;;;19.91;65.85;101360.44;5081950;28;20016;-69
2023/10/11 09:57:50;;;;;;;21.52;14.93;;;;;;;19.87;66.14;101362.50;5091224;28;20456;-70
2023/10/11 10:00:35;;;;;;;25.02;15.40;;;;;;;19.85;66.15;101353.69;5077229;28;20051;-70
2023/10/11 10:03:04;;;;;;;26.38;15.07;;;;;;;19.73;67.37;101359.94;5082890;28;20424;-70
2023/10/11 10:06:04;;;;;;;20.95;14.45;;;;;;;19.71;67.08;101376.13;5082903;28;20016;-70
2023/10/11 10:08:29;;;;;;;21.30;13.07;;;;;;;19.65;67.21;101370.34;5086041;28;20494;-70
2023/10/11 10:10:55;;;;;;;27.20;15.77;;;;;;;19.55;68.95;101381.66;5086320;28;20024;-70
2023/10/11 10:13:24;;;;;;;23.50;16.30;;;;;;;19.56;68.71;101366.44;5085500;28;20023;-70
2023/10/11 10:15:52;;;;;;;24.27;14.32;;;;;;;19.54;68.59;101379.09;5078854;28;20035;-70
2023/10/11 10:18:22;;;;;;;22.23;15.68;;;;;;;19.53;68.80;101382.72;5083569;28;20116;-70
2023/10/11 10:21:06;;;;;;;25.17;16.90;;;;;;;19.57;68.94;101394.97;5074088;28;20032;-70
2023/10/11 10:23:32;;;;;;;26.00;17.73;;;;;;;19.49;69.40;101383.91;5082446;28;20025;-70
2023/10/11 10:26:04;;;;;;;23.17;15.38;;;;;;;19.40;69.49;101382.75;5082204;28;20393;-70
2023/10/11 10:28:35;;;;;;;28.65;18.13;;;;;;;19.35;69.72;101371.44;5085347;28;20039;-70
2023/10/11 10:31:04;;;;;;;29.48;17.58;;;;;;;19.37;69.74;101373.06;5074551;28;20029;-70
2023/10/11 10:33:35;;;;;;;26.27;17.88;;;;;;;19.42;70.21;101370.06;5082476;28;20038;-69
2023/10/11 10:36:20;;;;;;;26.55;17.42;;;;;;;19.44;70.12;101372.63;5081908;28;20070;-70
2023/10/11 10:39:00;;;;;;;26.15;17.90;;;;;;;19.39;70.38;101372.94;5082562;28;20484;-70
2023/10/11 10:41:33;;;;;;;31.75;17.55;;;;;;;19.46;70.45;101370.72;5085511;28;20028;-70
2023/10/11 10:44:09;;;;;;;30.02;18.48;;;;;;;19.53;70.37;101362.13;5083643;28;20082;-69
2023/10/11 10:46:36;;;;;;;31.10;18.13;;;;;;;19.50;70.95;101366.88;5083409;28;20043;-69
2023/10/11 10:49:02;;;;;;;27.58;18.20;;;;;;;19.47;70.81;101375.97;5083768;28;20020;-69
2023/10/11 10:51:35;;;;;;;27.50;16.70;;;;;;;19.39;70.50;101372.94;5081429;28;20052;-70
2023/10/11 10:54:12;;;;;;;25.25;17.60;;;;;;;19.29;71.29;101387.94;5082143;28;20454;-69
2023/10/11 10:56:39;;;;;;;25.90;16.60;;;;;;;19.39;71.24;101370.28;5074480;28;20464;-69
2023/10/11 10:59:11;;;;;;;25.08;16.67;;;;;;;19.48;71.43;101383.03;5083047;28;20024;-69
2023/10/11 11:01:37;;;;;;;30.45;17.73;;;;;;;19.36;71.87;101367.81;5085413;28;20048;-69
2023/10/11 11:04:07;;;;;;;26.50;18.30;;;;;;;19.28;72.02;101373.69;5086063;28;20444;-69
2023/10/11 11:06:46;;;;;;;24.90;16.67;;;;;;;19.37;71.47;101373.06;5068834;28;20046;-70
2023/10/11 11:09:13;;;;;;;31.02;17.60;;;;;;;19.43;72.22;101377.13;5084303;28;20031;-70
2023/10/11 11:11:42;;;;;;;36.35;19.23;;;;;;;19.49;71.50;101374.06;5073813;28;20024;-69
2023/10/11 11:14:15;;;;;;;28.75;17.80;;;;;;;19.47;71.45;101373.28;5082234;28;20040;-70
2023/10/11 11:16:44;;;;;;;27.45;17.80;;;;;;;19.46;72.00;101365.38;5081901;28;20035;-68
2023/10/11 11:19:16;;;;;;;26.70;18.17;;;;;;;19.38;72.30;101344.44;5082235;28;20054;-68
2023/10/11 11:21:45;;;;;;;29.92;17.70;;;;;;;19.47;72.15;101346.47;5084254;28;20115;-68
2023/10/11 11:24:17;;;;;;;23.92;16.83;;;;;;;19.53;71.77;101338.00;5079031;28;20028;-69
2023/10/11 11:26:43;;;;;;;23.42;17.52;;;;;;;19.58;71.84;101346.59;5081447;28;20032;-68
2023/10/11 11:29:10;;;;;;;27.48;16.52;;;;;;;19.61;71.49;101349.06;5085421;28;20619;-69
2023/10/11 11:31:52;;;;;;;27.27;16.83;;;;;;;19.66;71.53;101346.06;5084676;28;20058;-69
2023/10/11 11:34:26;;;;;;;27.45;17.88;;;;;;;19.65;71.74;101324.72;5081781;28;20104;-68
2023/10/11 11:36:59;;;;;;;24.00;15.05;;;;;;;19.71;71.12;101324.28;5086503;28;20081;-69
2023/10/11 11:39:26;;;;;;;25.17;15.82;;;;;;;19.70;71.46;101317.22;5081669;28;20029;-68
2023/10/11 11:41:53;;;;;;;25.48;16.52;;;;;;;19.63;71.54;101322.13;5082735;28;20013;-68
2023/10/11 11:44:22;;;;;;;24.15;14.90;;;;;;;19.60;71.58;101303.59;5083036;28;20028;-68
2023/10/11 11:46:49;;;;;;;29.38;16.17;;;;;;;19.57;72.34;101301.94;5072955;28;20479;-69
2023/10/11 11:49:22;;;;;;;26.60;16.52;;;;;;;19.71;71.80;101305.50;5073271;28;20024;-68
2023/10/11 11:51:52;;;;;;;30.30;15.40;;;;;;;19.74;71.79;101289.22;5080049;28;20079;-70
2023/10/11 11:54:28;;;;;;;25.23;14.80;;;;;;;19.93;71.03;101299.47;5081781;28;20036;-69
2023/10/11 11:56:54;;;;;;;27.83;16.38;;;;;;;19.95;70.69;101301.06;5083437;28;20590;-69
2023/10/11 11:59:29;;;;;;;24.30;15.55;;;;;;;19.81;70.99;101304.75;5081746;28;20031;-70
2023/10/11 12:02:01;;;;;;;26.25;15.88;;;;;;;19.77;71.32;101291.66;5080816;28;20447;-69
2023/10/11 12:04:32;;;;;;;25.73;14.68;;;;;;;19.90;70.35;101287.13;5083258;28;20475;-69
2023/10/11 12:06:59;;;;;;;25.88;15.63;;;;;;;20.04;70.64;101280.75;5076940;28;20100;-69
2023/10/11 12:09:31;;;;;;;22.65;15.52;;;;;;;20.15;69.99;101262.06;5083203;28;20458;-69
2023/10/11 12:12:02;;;;;;;;;;;;;;;20.56;68.77;101260.81;5083666;28;20024;-69
2023/10/11 12:14:28;;;;;;;20.95;13.65;;;;;;;21.07;67.31;101244.34;5081770;28;19950;-69
2023/10/11 12:16:55;;;;;;;20.77;13.70;;;;;;;21.23;66.35;101252.09;5075421;28;20032;-69
2023/10/11 12:19:24;;;;;;;19.63;10.70;;;;;;;21.40;65.29;101246.25;5083917;28;20495;-68
2023/10/11 12:21:51;;;;;;;18.92;13.07;;;;;;;21.54;64.90;101250.53;5072115;28;20035;-68
2023/10/11 12:24:16;;;;;;;20.95;13.07;;;;;;;21.57;64.14;101259.22;5087143;28;20104;-69